createdAt,value
2022-10-06T00:01:12.950Z,19.12
2022-10-06T00:12:03.529Z,18.87
2022-10-06T00:22:16.554Z,16.27
2022-10-06T00:48:46.044Z,16.61
2022-10-06T00:52:14.777Z,15.73
2022-10-06T01:03:05.850Z,18.54
2022-10-06T01:06:35.092Z,16.16
2022-10-06T01:27:53.985Z,17.31
2022-10-06T01:30:59.406Z,17.32
2022-10-06T01:48:32.927Z,17.82
2022-10-06T01:52:12.817Z,15.18
2022-10-06T02:04:51.001Z,17.83
2022-10-06T02:14:53.242Z,16.21
2022-10-06T06:44:44.397Z,17.53
2022-10-06T06:47:12.035Z,17.98
2022-10-06T06:49:39.645Z,18.24
2022-10-06T06:52:08.379Z,18.91
2022-10-06T06:54:36.346Z,19.45
2022-10-06T07:14:25.101Z,23.12
2022-10-06T07:17:10.397Z,23.64
2022-10-06T07:19:51.893Z,24.18
2022-10-06T07:22:47.185Z,24.60
2022-10-06T07:25:25.122Z,24.99
2022-10-06T07:27:53.559Z,25.44
2022-10-06T07:30:23.355Z,25.88
2022-10-06T07:32:51.748Z,26.25
2022-10-06T07:35:20.216Z,26.64
2022-10-06T07:37:48.540Z,27.05
2022-10-06T07:40:16.178Z,27.39
2022-10-06T07:42:51.701Z,27.49
2022-10-06T07:45:37.672Z,28.04
2022-10-06T07:48:06.866Z,28.44
2022-10-06T07:50:48.443Z,28.82
2022-10-06T07:53:16.812Z,29.24
2022-10-06T07:55:46.321Z,29.52
2022-10-06T07:58:15.882Z,29.80
2022-10-06T08:00:43.715Z,30.19
2022-10-06T08:03:14.337Z,30.51
2022-10-06T08:05:42.008Z,31.05
2022-10-06T08:08:09.890Z,31.49
2022-10-06T08:10:37.553Z,31.91
2022-10-06T08:13:06.177Z,32.34
2022-10-06T08:15:34.137Z,32.67
2022-10-06T08:18:02.383Z,33.06
2022-10-06T08:20:37.576Z,33.41
2022-10-06T08:23:08.776Z,33.59
2022-10-06T08:25:51.018Z,32.89
2022-10-06T08:28:18.689Z,34.12
2022-10-06T08:30:48.013Z,34.40
2022-10-06T08:33:18.179Z,34.03
2022-10-06T08:35:49.413Z,33.87
2022-10-06T08:38:18.492Z,35.08
2022-10-06T08:40:46.199Z,35.41
2022-10-06T08:43:16.777Z,35.81
2022-10-06T08:45:45.231Z,36.14
2022-10-06T08:48:14.270Z,36.40
2022-10-06T08:50:48.911Z,36.69
2022-10-06T08:53:21.001Z,37.24
2022-10-06T08:55:49.972Z,37.57
2022-10-06T08:58:22.651Z,37.91
2022-10-06T09:00:50.708Z,38.33
2022-10-06T09:03:23.826Z,38.64
2022-10-06T09:05:52.607Z,39.13
2022-10-06T09:08:27.535Z,39.29
2022-10-06T09:11:02.788Z,39.10
2022-10-06T09:13:32.107Z,39.14
2022-10-06T09:16:01.227Z,39.59
2022-10-06T09:18:49.270Z,39.86
2022-10-06T09:21:19.628Z,39.07
2022-10-06T09:23:51.532Z,39.26
2022-10-06T09:26:22.116Z,39.48
2022-10-06T09:28:50.037Z,38.93
2022-10-06T09:31:25.173Z,38.80
2022-10-06T09:33:55.306Z,39.04
2022-10-06T09:36:24.148Z,39.25
2022-10-06T09:38:54.210Z,39.87
2022-10-06T09:41:24.205Z,40.35
2022-10-06T09:43:55.381Z,40.88
2022-10-06T09:46:28.935Z,41.42
2022-10-06T09:49:07.855Z,42.06
2022-10-06T09:51:36.447Z,42.78
2022-10-06T09:54:14.291Z,43.30
2022-10-06T09:56:43.286Z,43.77
2022-10-06T09:59:19.632Z,44.04
2022-10-06T10:01:52.287Z,44.22
2022-10-06T10:04:23.846Z,43.47
2022-10-06T10:06:51.850Z,43.91
2022-10-06T10:09:27.157Z,44.23
2022-10-06T10:12:27.763Z,44.65
2022-10-06T10:14:57.470Z,45.19
2022-10-06T10:17:33.943Z,45.45
2022-10-06T10:20:02.702Z,45.85
2022-10-06T10:25:08.094Z,46.76
2022-10-06T10:27:39.404Z,47.12
2022-10-06T10:30:09.935Z,47.41
2022-10-06T10:32:45.142Z,47.61
2022-10-06T10:35:20.570Z,47.26
2022-10-06T10:37:51.342Z,47.55
2022-10-06T10:40:26.781Z,47.93
2022-10-06T10:42:57.994Z,47.95
2022-10-06T10:45:29.019Z,47.94
2022-10-06T10:47:56.774Z,47.92
2022-10-06T10:50:27.454Z,48.01
2022-10-06T10:52:57.091Z,47.96
2022-10-06T10:55:28.864Z,47.09
2022-10-06T10:57:58.386Z,47.35
2022-10-06T11:00:28.170Z,46.27
2022-10-06T11:02:57.397Z,45.11
2022-10-06T11:05:33.306Z,44.05
2022-10-06T11:08:02.566Z,43.33
2022-10-06T11:10:32.299Z,42.38
2022-10-06T11:13:11.461Z,41.37
2022-10-06T11:15:50.322Z,40.57
2022-10-06T11:18:24.331Z,39.71
2022-10-06T11:20:52.454Z,39.78
2022-10-06T11:23:48.004Z,40.93
2022-10-06T11:26:36.749Z,42.11
2022-10-06T11:29:08.073Z,43.28
2022-10-06T11:31:37.102Z,44.85
2022-10-06T11:34:06.328Z,46.10
2022-10-06T11:36:39.285Z,47.35
2022-10-06T11:39:09.371Z,48.37
2022-10-06T11:41:39.878Z,49.12
2022-10-06T11:44:13.573Z,49.58
2022-10-06T11:46:45.081Z,50.24
2022-10-06T11:49:36.908Z,50.71
2022-10-06T11:52:52.552Z,50.91
2022-10-06T12:01:07.728Z,48.58
2022-10-06T12:04:03.824Z,46.44
2022-10-06T12:11:41.056Z,41.59
2022-10-06T12:17:12.848Z,37.49
2022-10-06T12:19:47.958Z,35.91
2022-10-06T12:22:18.125Z,34.64
2022-10-06T12:24:47.039Z,33.66
2022-10-06T12:27:40.784Z,32.85
2022-10-06T12:30:19.732Z,31.65
2022-10-06T12:32:50.938Z,31.09
2022-10-06T12:35:33.541Z,30.59
2022-10-06T12:38:04.849Z,30.03
2022-10-06T12:40:49.591Z,29.54
2022-10-06T12:43:34.411Z,29.18
2022-10-06T12:46:05.468Z,28.79
2022-10-06T12:48:37.395Z,28.42
2022-10-06T12:51:08.175Z,28.28
2022-10-06T12:53:38.106Z,27.95
2022-10-06T12:56:06.652Z,27.69
2022-10-06T12:58:34.982Z,27.61
2022-10-06T13:01:05.036Z,27.42
2022-10-06T13:03:32.747Z,27.30
2022-10-06T13:06:02.407Z,27.17
2022-10-06T13:08:30.680Z,27.07
2022-10-06T13:11:15.134Z,27.08
2022-10-06T13:13:47.145Z,26.91
2022-10-06T13:16:16.662Z,26.84
2022-10-06T13:18:44.294Z,26.79
2022-10-06T13:21:13.864Z,26.67
2022-10-06T13:23:41.469Z,26.59
2022-10-06T13:26:09.607Z,26.33
2022-10-06T13:28:47.136Z,26.42
2022-10-06T13:31:20.768Z,26.32
2022-10-06T13:33:49.810Z,26.24
2022-10-06T13:36:17.435Z,26.05
2022-10-06T13:38:46.606Z,26.20
2022-10-06T13:41:26.168Z,26.15
2022-10-06T13:43:54.821Z,26.07
2022-10-06T13:46:25.031Z,26.00
2022-10-06T13:48:54.448Z,25.81
2022-10-06T13:51:23.252Z,25.85
2022-10-06T13:53:51.962Z,25.79
2022-10-06T13:56:33.899Z,25.75
2022-10-06T13:59:29.125Z,25.69
2022-10-06T14:01:58.512Z,25.54
2022-10-06T14:04:26.271Z,25.51
2022-10-06T14:06:54.653Z,25.52
2022-10-06T14:09:25.925Z,25.42
2022-10-06T14:11:53.909Z,25.32
2022-10-06T14:14:21.799Z,25.23
2022-10-06T14:16:51.019Z,25.14
2022-10-06T14:19:31.671Z,25.10
2022-10-06T14:21:59.356Z,25.02
2022-10-06T14:24:28.316Z,24.93
2022-10-06T14:27:01.059Z,24.75
2022-10-06T14:29:28.668Z,24.66
2022-10-06T14:31:56.269Z,24.51
2022-10-06T14:34:23.857Z,24.45
2022-10-06T14:36:53.520Z,24.37
2022-10-06T14:39:21.338Z,24.30
2022-10-06T14:41:49.001Z,24.20
2022-10-06T14:44:16.738Z,24.15
2022-10-06T14:46:47.936Z,24.07
2022-10-06T14:49:15.726Z,23.69
2022-10-06T14:51:44.001Z,23.76
2022-10-06T14:54:13.394Z,23.94
2022-10-06T14:56:41.546Z,23.89
2022-10-06T14:59:10.439Z,23.85
2022-10-06T15:01:39.773Z,23.83
2022-10-06T15:04:09.101Z,23.78
2022-10-06T15:06:54.101Z,23.76
2022-10-06T15:09:25.957Z,23.67
2022-10-06T15:11:54.024Z,23.66
2022-10-06T15:14:22.345Z,23.60
2022-10-06T15:16:49.934Z,23.54
2022-10-06T15:19:17.752Z,23.20
2022-10-06T15:21:46.125Z,23.13
2022-10-06T15:24:15.330Z,23.36
2022-10-06T15:27:02.201Z,23.37
2022-10-06T15:29:29.820Z,23.29
2022-10-06T15:31:58.633Z,23.24
2022-10-06T15:34:26.937Z,23.12
2022-10-06T15:36:55.400Z,23.12
2022-10-06T15:39:24.292Z,22.96
2022-10-06T15:41:53.385Z,23.04
2022-10-06T15:44:21.050Z,22.98
2022-10-06T15:46:50.168Z,22.94
2022-10-06T15:49:19.846Z,22.72
2022-10-06T15:51:48.999Z,22.75
2022-10-06T15:54:19.112Z,22.69
2022-10-06T15:56:47.157Z,22.63
2022-10-06T15:59:16.422Z,22.54
2022-10-06T16:01:46.587Z,22.48
2022-10-06T16:04:20.515Z,22.43
2022-10-06T16:06:54.489Z,22.38
2022-10-06T16:09:22.765Z,22.33
2022-10-06T16:11:50.463Z,22.28
2022-10-06T16:14:19.757Z,22.17
2022-10-06T16:16:49.760Z,22.15
2022-10-06T16:19:17.852Z,22.10
2022-10-06T16:21:47.117Z,22.04
2022-10-06T16:24:15.024Z,21.99
2022-10-06T16:26:42.705Z,21.94
2022-10-06T16:29:12.295Z,21.86
2022-10-06T16:31:41.714Z,21.80
2022-10-06T16:34:09.590Z,21.75
2022-10-06T16:36:38.109Z,21.67
2022-10-06T16:39:06.133Z,21.61
2022-10-06T16:41:33.839Z,21.51
2022-10-06T16:44:01.485Z,21.47
2022-10-06T16:46:29.925Z,21.40
2022-10-06T16:49:00.073Z,21.33
2022-10-06T16:51:29.015Z,21.27
2022-10-06T16:53:57.948Z,20.94
2022-10-06T16:56:26.882Z,21.12
2022-10-06T16:58:56.466Z,21.03
2022-10-06T17:01:25.217Z,20.89
2022-10-06T17:03:59.831Z,20.82
2022-10-06T17:06:27.598Z,20.79
2022-10-06T17:08:56.524Z,20.71
2022-10-06T17:11:25.292Z,20.26
2022-10-06T17:13:53.887Z,20.48
2022-10-06T17:16:22.717Z,20.47
2022-10-06T17:18:50.799Z,20.38
2022-10-06T17:21:43.331Z,20.14
2022-10-06T17:24:08.133Z,20.22
2022-10-06T17:26:36.847Z,20.14
2022-10-06T17:29:06.165Z,19.96
2022-10-06T17:31:35.293Z,19.80
2022-10-06T17:34:03.204Z,19.85
2022-10-06T17:36:32.330Z,19.82
2022-10-06T17:39:01.694Z,19.76
2022-10-06T17:41:30.423Z,19.67
2022-10-06T17:43:59.158Z,19.66
2022-10-06T17:46:27.167Z,19.59
2022-10-06T17:48:55.881Z,19.42
2022-10-06T17:51:24.781Z,19.39
2022-10-06T17:53:56.130Z,19.29
2022-10-06T17:56:29.902Z,19.20
2022-10-06T17:58:59.763Z,19.14
2022-10-06T18:01:31.754Z,19.06
2022-10-06T18:04:00.418Z,18.98
2022-10-06T18:06:28.734Z,18.87
2022-10-06T18:09:00.204Z,18.79
2022-10-06T18:11:36.056Z,18.70
2022-10-06T18:14:05.121Z,18.60
2022-10-06T18:16:36.454Z,18.51
2022-10-06T18:19:06.373Z,18.43
2022-10-06T18:21:37.328Z,18.30
2022-10-06T18:24:07.393Z,18.20
2022-10-06T18:26:38.287Z,18.11
2022-10-06T18:29:20.321Z,17.96
2022-10-06T18:31:53.453Z,18.01
2022-10-06T18:37:27.403Z,17.07
2022-10-06T18:40:03.265Z,17.90
2022-10-06T18:42:43.031Z,17.88
2022-10-06T18:45:39.300Z,16.27
2022-10-06T18:48:26.785Z,17.74
2022-10-06T18:51:01.167Z,16.93
2022-10-06T18:53:31.101Z,17.56
2022-10-06T18:56:00.094Z,17.51
2022-10-06T18:58:27.740Z,17.47
2022-10-06T19:00:55.967Z,17.42
2022-10-06T19:03:23.814Z,17.29
2022-10-06T19:05:54.314Z,17.32
2022-10-06T19:08:21.931Z,17.29
2022-10-06T19:11:04.552Z,17.24
2022-10-06T19:13:33.693Z,17.16
2022-10-06T19:16:02.617Z,17.10
2022-10-06T19:18:36.670Z,17.09
2022-10-06T19:21:08.693Z,16.88
2022-10-06T19:23:37.891Z,16.93
2022-10-06T19:26:06.307Z,16.78
2022-10-06T19:28:37.426Z,16.76
2022-10-06T19:31:06.531Z,16.72
2022-10-06T19:33:34.615Z,16.88
2022-10-06T19:36:03.811Z,16.84
2022-10-06T19:38:31.729Z,16.75
2022-10-06T19:41:22.053Z,16.77
2022-10-06T19:43:50.664Z,16.66
2022-10-06T19:46:19.032Z,16.65
2022-10-06T19:48:51.778Z,16.64
2022-10-06T19:51:19.580Z,16.61
2022-10-06T19:53:49.709Z,16.58
2022-10-06T19:56:18.592Z,16.53
2022-10-06T19:58:46.435Z,16.51
2022-10-06T20:01:15.698Z,16.43
2022-10-06T20:03:43.887Z,16.43
2022-10-06T20:06:15.697Z,16.32
2022-10-06T20:08:43.883Z,16.33
2022-10-06T20:11:13.410Z,16.02
2022-10-06T20:13:41.830Z,16.17
2022-10-06T20:16:11.211Z,16.22
2022-10-06T20:18:42.003Z,15.40
2022-10-06T20:21:13.425Z,16.20
2022-10-06T20:23:41.242Z,16.18
2022-10-06T20:26:13.026Z,16.12
2022-10-06T20:28:40.624Z,16.11
2022-10-06T20:31:16.136Z,15.89
2022-10-06T20:33:45.099Z,16.04
2022-10-06T20:36:13.155Z,15.96
2022-10-06T20:38:58.228Z,15.97
2022-10-06T20:41:25.854Z,15.90
2022-10-06T20:43:56.643Z,15.88
2022-10-06T20:46:24.727Z,15.85
2022-10-06T20:48:53.790Z,15.78
2022-10-06T20:51:25.468Z,15.77
2022-10-06T20:53:55.199Z,15.75
2022-10-06T20:56:22.846Z,15.72
2022-10-06T20:58:50.627Z,15.67
2022-10-06T21:01:18.540Z,15.61
2022-10-06T21:03:47.670Z,15.53
2022-10-06T21:06:17.465Z,15.46
2022-10-06T21:08:46.301Z,15.41
2022-10-06T21:11:14.981Z,15.34
2022-10-06T21:13:50.436Z,15.31
2022-10-06T21:16:20.080Z,15.19
2022-10-06T21:18:48.123Z,15.26
2022-10-06T21:21:17.422Z,15.21
2022-10-06T21:23:46.634Z,15.22
2022-10-06T21:26:16.462Z,15.05
2022-10-06T21:28:45.133Z,15.12
2022-10-06T21:31:14.281Z,15.12
2022-10-06T21:33:42.448Z,15.08
2022-10-06T21:36:15.225Z,14.88
2022-10-06T21:38:45.708Z,15.14
2022-10-06T21:41:27.625Z,15.09
2022-10-06T21:43:55.775Z,15.08
2022-10-06T21:46:28.844Z,15.05
2022-10-06T21:48:57.487Z,15.04
2022-10-06T21:51:26.746Z,14.99
2022-10-06T21:53:57.589Z,14.99
2022-10-06T21:56:25.642Z,14.99
2022-10-06T21:58:54.197Z,14.93
2022-10-06T22:01:22.881Z,14.90
2022-10-06T22:03:50.905Z,14.85
2022-10-06T22:06:19.783Z,14.79
2022-10-06T22:08:47.761Z,14.78
2022-10-06T22:11:17.610Z,14.74
2022-10-06T22:13:46.112Z,14.48
2022-10-06T22:16:14.767Z,14.70
2022-10-06T22:18:42.759Z,14.64
2022-10-06T22:21:14.778Z,14.64
2022-10-06T22:26:19.316Z,14.56
2022-10-06T22:28:48.067Z,14.41
2022-10-06T22:31:16.330Z,14.35
2022-10-06T22:33:44.473Z,14.48
2022-10-06T22:36:13.473Z,14.35
2022-10-06T22:38:41.391Z,14.41
2022-10-06T22:41:10.211Z,14.33
2022-10-06T22:43:39.785Z,14.32
2022-10-06T22:46:09.056Z,14.28
2022-10-06T22:48:37.048Z,13.85
2022-10-06T22:51:05.176Z,14.26
2022-10-06T22:53:33.510Z,14.23
2022-10-06T22:56:02.038Z,14.20
2022-10-06T22:58:29.855Z,14.14
2022-10-06T23:00:59.159Z,14.09
2022-10-06T23:03:27.128Z,13.86
2022-10-06T23:05:55.350Z,14.06
2022-10-06T23:08:23.152Z,14.07
2022-10-06T23:10:51.177Z,14.04
2022-10-06T23:13:19.080Z,13.98
2022-10-06T23:15:48.045Z,14.00
2022-10-06T23:18:17.424Z,13.98
2022-10-06T23:20:45.378Z,13.99
2022-10-06T23:23:13.403Z,13.96
2022-10-06T23:25:41.282Z,13.87
2022-10-06T23:28:09.266Z,13.88
2022-10-06T23:30:37.194Z,13.87
2022-10-06T23:33:05.499Z,13.86
2022-10-06T23:35:34.808Z,13.84
2022-10-06T23:38:30.765Z,13.83
2022-10-06T23:40:58.637Z,13.76
2022-10-06T23:43:26.673Z,13.72
2022-10-06T23:45:54.618Z,13.70
2022-10-06T23:48:24.133Z,13.64
2022-10-06T23:50:57.882Z,13.56
2022-10-06T23:53:27.216Z,13.64
2022-10-06T23:55:55.109Z,13.23
2022-10-06T23:58:23.256Z,13.42
